Airfield :
LOGIN :

Register | Disclaimer

   EN    FR    IT 

 










Legend :    VFR   Marginal VFR   IFR   Intensive IFR   Very Intensive IFR
Visi :
Ceiling :
>= 8 km
>= 3000ft
5 to 8 km
1000 to 3000 ft
1500m to 5 km
500 to 1000 ft
800 to 1500m
200 to 500 ft
< 800m
< 200 ft
Symbols :   Thunderstorms  Fog  Heavy snow  Heavy precipitations  Wind > 20 kt
SIGMETs :     Misc.  Thunderstorms  Icing  Turbulence  Mountain Waves  Volcanic Ashes






- Airport Elevation : 400 ft
- IATA code : BNX


LQBK - Banja Luka

CURRENT METAR :
  • 301000Z 21006KT 190V250 CAVOK 03/M01 Q1019 NOSIG

EXPIRED METARs :
  • 300930Z 20007KT 170V240 CAVOK 02/M02 Q1020 NOSIG
  • 300900Z 19006KT 160V220 9999 FEW024 02/M02 Q1020 NOSIG
  • 300830Z 19002KT 9999 FEW024 01/M02 Q1020 NOSIG
  • 300800Z 33002KT 9999 FEW024 02/M01 Q1021 NOSIG
  • 300730Z VRB02KT 9999 FEW025 00/M02 Q1021 NOSIG

TAF COR TAF LQBK
Valid from the 30 at 06:00 until the 31 at 06:00 UTC


300500Z 3006/3106 22005KT 9999 BKN030 TX05/3013Z TNM03/3105Z
PROB40
TEMPO 3006/3009 3000 BR



MET'MAP, your aeronautical weather chart ! - Copyright ORBIFLY December 2007 - Disclaimer

ORBIFLY MET'MAP TEAM :

Programming & Development : Alexandra Zaïnal
Original concept : Baudouin d'Aumeries
Technical & hardware support : Manuel Goepfert
Assistance : Marc-Olivier Méhu




SOURCES & CREDITS :

   NOAA